Aviation Digital Data Service (ADDS)

Output produced by METARs form (1605 UTC 05 August 2020)
found at http://aviationweather.gov/metar/data/
 
METAR text: KPGV 051555Z AUTO 25004KT 7SM BKN018 30/25 A3009 RMK AO2
Conditions at: KPGV (PITT GREENVILLE , NC, US) observed 1555 UTC 05 August 2020
Temperature: 30.0°C (86°F)
Dewpoint: 25.0°C (77°F) [RH = 75%]
Pressure (altimeter): 30.09 inches Hg (1019.0 mb)
Winds: from the WSW (250 degrees) at 5 MPH (4 knots; 2.1 m/s)
Visibility: 7 miles (11 km)
Ceiling: 1800 feet AGL
Clouds: broken clouds at 1800 feet AGL
Weather: automated observation with no human augmentation;
there may or may not be significant weather present at this time

METAR text: KPGV 051535Z AUTO 23005KT 10SM BKN014 BKN022 28/24 A3010 RMK AO2
Conditions at: KPGV (PITT GREENVILLE , NC, US) observed 1535 UTC 05 August 2020
Temperature: 28.0°C (82°F)
Dewpoint: 24.0°C (75°F) [RH = 79%]
Pressure (altimeter): 30.10 inches Hg (1019.4 mb)
Winds: from the SW (230 degrees) at 6 MPH (5 knots; 2.6 m/s)
Visibility: 10 or more miles (16+ km)
Ceiling: 1400 feet AGL
Clouds: broken clouds at 1400 feet AGL
broken clouds at 2200 feet AGL
Weather: automated observation with no human augmentation;
there may or may not be significant weather present at this time

METAR text: KPGV 051515Z AUTO 20003KT 10SM SCT001 BKN012 28/25 A3010 RMK AO2
Conditions at: KPGV (PITT GREENVILLE , NC, US) observed 1515 UTC 05 August 2020
Temperature: 28.0°C (82°F)
Dewpoint: 25.0°C (77°F) [RH = 84%]
Pressure (altimeter): 30.10 inches Hg (1019.4 mb)
Winds: from the SSW (200 degrees) at 3 MPH (3 knots; 1.5 m/s)
Visibility: 10 or more miles (16+ km)
Ceiling: 1200 feet AGL
Clouds: scattered clouds at 100 feet AGL
broken clouds at 1200 feet AGL
Weather: automated observation with no human augmentation;
there may or may not be significant weather present at this time

METAR text: KPGV 051455Z AUTO 23003KT 7SM BKN012 28/25 A3010 RMK AO2
Conditions at: KPGV (PITT GREENVILLE , NC, US) observed 1455 UTC 05 August 2020
Temperature: 28.0°C (82°F)
Dewpoint: 25.0°C (77°F) [RH = 84%]
Pressure (altimeter): 30.10 inches Hg (1019.4 mb)
Winds: from the SW (230 degrees) at 3 MPH (3 knots; 1.5 m/s)
Visibility: 7 miles (11 km)
Ceiling: 1200 feet AGL
Clouds: broken clouds at 1200 feet AGL
Weather: automated observation with no human augmentation;
there may or may not be significant weather present at this time

METAR text: KPGV 051435Z AUTO 25004KT 10SM OVC010 27/25 A3009 RMK AO2
Conditions at: KPGV (PITT GREENVILLE , NC, US) observed 1435 UTC 05 August 2020
Temperature: 27.0°C (81°F)
Dewpoint: 25.0°C (77°F) [RH = 89%]
Pressure (altimeter): 30.09 inches Hg (1019.0 mb)
Winds: from the WSW (250 degrees) at 5 MPH (4 knots; 2.1 m/s)
Visibility: 10 or more miles (16+ km)
Ceiling: 1000 feet AGL
Clouds: overcast cloud deck at 1000 feet AGL
Weather: automated observation with no human augmentation;
there may or may not be significant weather present at this time

METAR text: KPGV 051415Z AUTO 00000KT 7SM OVC008 27/25 A3009 RMK AO2
Conditions at: KPGV (PITT GREENVILLE , NC, US) observed 1415 UTC 05 August 2020
Temperature: 27.0°C (81°F)
Dewpoint: 25.0°C (77°F) [RH = 89%]
Pressure (altimeter): 30.09 inches Hg (1019.0 mb)
Winds: calm
Visibility: 7 miles (11 km)
Ceiling: 800 feet AGL
Clouds: overcast cloud deck at 800 feet AGL
Weather: automated observation with no human augmentation;
there may or may not be significant weather present at this time

Forecast for: KPGV (PITT GREENVILLE , NC, US)
Text: KPGV 051322Z 0513/0612 VRB03KT P6SM SCT035 BKN150
Forecast period: 1300 to 1600 UTC 05 August 2020
Forecast type: FROM: standard forecast or significant change
Winds: variable direction winds at 3 MPH (3 knots; 1.5 m/s)
Visibility: 6 or more miles 10+ km)
Ceiling: 15000 feet AGL
Clouds: scattered clouds at 3500 feet AGL
broken clouds at 15000 feet AGL
Weather: no significant weather forecast for this period
Text: TEMPO 0513/0514 BKN008
Forecast period: 1300 to 1400 UTC 05 August 2020
Forecast type: TEMPORARY: The following changes expected for less than half the time period
Visibility: missing
Ceiling: 800 feet AGL
Clouds: broken clouds at 800 feet AGL
Weather: no significant weather forecast for this period
Text: FM051600 21004KT P6SM VCSH SCT040 BKN150
Forecast period: 1600 to 2300 UTC 05 August 2020
Forecast type: FROM: standard forecast or significant change
Winds: from the SSW (210 degrees) at 5 MPH (4 knots; 2.1 m/s)
Visibility: 6 or more miles 10+ km)
Ceiling: 15000 feet AGL
Clouds: scattered clouds at 4000 feet AGL
broken clouds at 15000 feet AGL
Weather: VCSH  (showers in vicinity)
Text: TEMPO 0518/0522 4SM TS BKN040CB
Forecast period: 1800 to 2200 UTC 05 August 2020
Forecast type: TEMPORARY: The following changes expected for less than half the time period
Visibility: 4 miles (6 km)
Ceiling: 4000 feet AGL
Clouds: broken clouds at 4000 feet AGL
Weather: TS  (thunderstorm)
Text: FM052300 16006KT P6SM BKN050 AMD LTD TO CLD VIS AND WIND
Forecast period: 2300 UTC 05 August 2020 to 1200 UTC 06 August 2020
Forecast type: FROM: standard forecast or significant change
Winds: from the SSE (160 degrees) at 7 MPH (6 knots; 3.1 m/s)
Visibility: 6 or more miles 10+ km)
Ceiling: 5000 feet AGL
Clouds: broken clouds at 5000 feet AGL
Weather: no significant weather forecast for this period